Time;durP1;ratioP1;P1;durP2;ratioP2;P2;SDS_P1;SDS_P2;PMS_P1;PMS_P2;Temp;Humidity;BMP_temperature;BMP_pressure;BME280_temperature;BME280_humidity;BME280_pressure;Samples;Min_cycle;Max_cycle;Signal;HPM_P1;HPM_P2
2023/09/05 00:02:14;;;;;;;7.88;4.95;;;;;;;16.47;100.00;101874.38;5169344;28;20073;-84
2023/09/05 00:04:44;;;;;;;6.45;4.63;;;;;;;16.47;100.00;101876.25;5182298;28;20642;-84
2023/09/05 00:07:16;;;;;;;12.05;4.90;;;;;;;16.41;100.00;101882.34;5171872;28;20038;-84
2023/09/05 00:09:47;;;;;;;8.05;4.53;;;;;;;16.38;100.00;101880.88;5160453;28;20025;-84
2023/09/05 00:12:18;;;;;;;12.38;4.65;;;;;;;16.33;100.00;101883.25;5186024;28;20475;-84
2023/09/05 00:14:48;;;;;;;9.18;4.28;;;;;;;16.36;100.00;101879.34;5201616;28;20080;-84
2023/09/05 00:17:19;;;;;;;8.95;4.68;;;;;;;16.33;100.00;101877.84;5189904;28;20041;-84
2023/09/05 00:19:49;;;;;;;7.55;4.75;;;;;;;16.35;100.00;101875.78;5165562;28;20053;-84
2023/09/05 00:22:20;;;;;;;13.73;5.53;;;;;;;16.36;100.00;101868.50;5187153;28;20056;-84
2023/09/05 00:24:50;;;;;;;8.55;5.00;;;;;;;16.35;100.00;101866.81;5178669;28;20033;-84
2023/09/05 00:27:21;;;;;;;8.27;4.78;;;;;;;16.33;100.00;101858.91;5200272;28;20041;-84
2023/09/05 00:29:52;;;;;;;8.02;4.85;;;;;;;16.30;100.00;101862.78;5177400;28;20060;-84
2023/09/05 00:32:22;;;;;;;7.32;4.63;;;;;;;16.28;100.00;101862.13;5182529;28;20034;-84
2023/09/05 00:34:53;;;;;;;6.53;4.68;;;;;;;16.25;100.00;101865.19;5171927;28;20030;-84
2023/09/05 00:37:23;;;;;;;9.15;5.50;;;;;;;16.20;100.00;101862.19;5160567;28;20022;-84
2023/09/05 00:39:54;;;;;;;14.02;5.03;;;;;;;16.15;100.00;101856.44;5172424;28;20022;-84
2023/09/05 00:42:24;;;;;;;8.85;4.68;;;;;;;16.12;100.00;101858.69;5187834;28;20037;-84
2023/09/05 00:44:55;;;;;;;7.57;3.90;;;;;;;16.10;100.00;101860.72;5173876;28;20097;-84
2023/09/05 00:47:29;;;;;;;9.35;5.00;;;;;;;16.07;100.00;101861.09;5172181;28;20492;-84
2023/09/05 00:50:05;;;;;;;8.43;4.47;;;;;;;16.05;100.00;101856.69;5203002;28;20062;-84
2023/09/05 00:52:36;;;;;;;9.32;4.93;;;;;;;16.01;100.00;101855.38;5180739;28;20030;-84
2023/09/05 00:55:07;;;;;;;11.13;5.05;;;;;;;15.97;100.00;101858.59;5180010;28;20049;-84
2023/09/05 00:57:38;;;;;;;10.43;5.47;;;;;;;15.94;100.00;101867.06;5185312;28;20033;-84
2023/09/05 01:00:09;;;;;;;10.52;4.80;;;;;;;15.89;100.00;101862.19;5186399;28;20033;-84
2023/09/05 01:02:41;;;;;;;7.80;4.80;;;;;;;15.87;100.00;101858.81;5203095;28;20160;-83
2023/09/05 01:05:12;;;;;;;9.88;5.05;;;;;;;15.85;100.00;101874.38;5172996;28;20061;-84
2023/09/05 01:08:02;;;;;;;8.35;5.10;;;;;;;15.85;100.00;101868.97;5187759;28;20065;-84
2023/09/05 01:10:46;;;;;;;8.63;5.50;;;;;;;15.82;100.00;101863.91;5179638;28;20029;-84
2023/09/05 01:13:22;;;;;;;9.65;4.40;;;;;;;15.76;100.00;101868.19;5180486;28;20114;-84
2023/09/05 01:15:54;;;;;;;7.57;5.35;;;;;;;15.72;100.00;101861.41;5177064;28;20632;-84
2023/09/05 01:18:24;;;;;;;7.80;4.85;;;;;;;15.69;100.00;101866.34;5173116;28;20055;-85
2023/09/05 01:21:16;;;;;;;8.68;4.75;;;;;;;15.65;100.00;101867.69;5184053;28;20104;-84
2023/09/05 01:23:55;;;;;;;12.75;4.75;;;;;;;15.62;100.00;101868.88;5173213;28;20499;-84
2023/09/05 01:26:27;;;;;;;6.40;4.47;;;;;;;15.61;100.00;101863.63;5173223;28;20531;-84
2023/09/05 01:28:59;;;;;;;5.82;4.78;;;;;;;15.60;100.00;101868.19;5186032;28;20026;-84
2023/09/05 01:31:29;;;;;;;7.68;5.13;;;;;;;15.62;100.00;101870.72;5179769;28;20162;-84
2023/09/05 01:34:00;;;;;;;13.98;5.57;;;;;;;15.57;100.00;101873.13;5181253;28;20021;-84
2023/09/05 01:36:30;;;;;;;8.75;5.25;;;;;;;15.52;100.00;101871.78;5177645;28;20022;-85
2023/09/05 01:39:01;;;;;;;9.45;5.85;;;;;;;15.47;100.00;101870.59;5193994;28;20025;-84
2023/09/05 01:41:31;;;;;;;10.30;5.10;;;;;;;15.42;100.00;101875.69;5181605;28;20380;-84
2023/09/05 01:44:02;;;;;;;10.27;5.22;;;;;;;15.38;100.00;101875.19;5183905;28;20029;-84
2023/09/05 01:46:34;;;;;;;7.65;5.07;;;;;;;15.34;100.00;101876.53;5172201;28;20587;-84
2023/09/05 01:49:05;;;;;;;11.73;5.28;;;;;;;15.29;100.00;101873.50;5183540;28;20042;-85
2023/09/05 01:51:36;;;;;;;16.08;5.28;;;;;;;15.24;100.00;101873.19;5184684;28;20387;-84
2023/09/05 01:54:07;;;;;;;6.30;4.50;;;;;;;15.23;100.00;101866.94;5181078;28;20022;-84
2023/09/05 01:56:37;;;;;;;8.43;5.57;;;;;;;15.21;100.00;101870.81;5200933;28;20578;-84
2023/09/05 01:59:08;;;;;;;7.72;5.40;;;;;;;15.21;100.00;101871.69;5182472;28;20022;-84
2023/09/05 02:01:39;;;;;;;9.50;5.43;;;;;;;15.23;100.00;101871.50;5176350;28;20033;-84
2023/09/05 02:04:14;;;;;;;10.47;4.90;;;;;;;15.23;100.00;101876.91;5185881;28;20053;-84
2023/09/05 02:06:45;;;;;;;9.60;5.70;;;;;;;15.23;100.00;101866.94;5201705;28;20724;-83
2023/09/05 02:09:16;;;;;;;9.13;5.50;;;;;;;15.22;100.00;101865.25;5200555;28;20036;-84
2023/09/05 02:11:53;;;;;;;9.63;5.47;;;;;;;15.18;100.00;101866.63;5184234;28;20057;-85
2023/09/05 02:14:24;;;;;;;9.45;5.43;;;;;;;15.14;100.00;101865.25;5175784;28;20036;-84
2023/09/05 02:16:55;;;;;;;9.45;5.13;;;;;;;15.11;100.00;101868.31;5175301;28;20109;-84
2023/09/05 02:19:28;;;;;;;8.50;5.22;;;;;;;15.06;100.00;101861.72;5182942;28;20134;-84
2023/09/05 02:21:59;;;;;;;7.45;5.10;;;;;;;15.00;100.00;101863.25;5168617;28;20033;-84
2023/09/05 02:24:30;;;;;;;7.95;5.53;;;;;;;15.00;100.00;101852.44;5179618;28;20412;-84
2023/09/05 02:27:01;;;;;;;11.00;5.30;;;;;;;15.00;100.00;101857.84;5174626;28;20027;-84
2023/09/05 02:29:32;;;;;;;9.43;5.50;;;;;;;14.99;100.00;101858.88;5186019;28;20030;-84
2023/09/05 02:32:03;;;;;;;14.35;6.43;;;;;;;15.00;100.00;101863.25;5176809;28;20028;-84
2023/09/05 02:34:34;;;;;;;8.18;5.25;;;;;;;14.95;100.00;101862.91;5193357;28;21039;-84
2023/09/05 02:37:05;;;;;;;8.82;5.82;;;;;;;14.90;100.00;101860.72;5171600;28;20053;-84
2023/09/05 02:39:35;;;;;;;10.23;5.72;;;;;;;14.89;100.00;101860.91;5180343;28;20028;-84
2023/09/05 02:42:06;;;;;;;8.02;5.03;;;;;;;14.85;100.00;101868.50;5193262;28;20028;-84
2023/09/05 02:44:36;;;;;;;13.20;5.82;;;;;;;14.82;100.00;101868.84;5180972;28;20028;-84
2023/09/05 02:47:07;;;;;;;11.13;5.35;;;;;;;14.77;100.00;101868.53;5188885;28;20038;-84
2023/09/05 02:49:37;;;;;;;10.43;6.03;;;;;;;14.75;100.00;101870.53;5186874;28;20381;-83
2023/09/05 02:52:08;;;;;;;13.57;5.75;;;;;;;14.69;100.00;101863.94;5187751;28;20033;-84
2023/09/05 02:54:38;;;;;;;10.68;6.25;;;;;;;14.67;100.00;101860.56;5179298;28;20034;-84
2023/09/05 02:57:09;;;;;;;8.52;4.10;;;;;;;14.60;100.00;101858.72;5166864;28;20077;-84
2023/09/05 02:59:39;;;;;;;9.82;5.38;;;;;;;14.58;100.00;101863.44;5174021;28;20022;-84
2023/09/05 03:02:10;;;;;;;10.02;5.95;;;;;;;14.60;100.00;101864.94;5200511;28;20030;-84
2023/09/05 03:04:40;;;;;;;7.03;5.03;;;;;;;14.58;100.00;101866.16;5174868;28;20432;-85
2023/09/05 03:07:11;;;;;;;12.38;5.70;;;;;;;14.57;100.00;101864.47;5177879;28;20025;-84
2023/09/05 03:09:41;;;;;;;11.98;5.47;;;;;;;14.53;100.00;101866.66;5171678;28;20477;-84
2023/09/05 03:12:12;;;;;;;9.10;6.30;;;;;;;14.51;100.00;101863.28;5184448;28;20044;-85
2023/09/05 03:14:43;;;;;;;12.40;5.82;;;;;;;14.49;100.00;101867.97;5188186;28;20092;-84
2023/09/05 03:17:14;;;;;;;11.90;5.63;;;;;;;14.46;100.00;101866.44;5177164;28;20033;-84
2023/09/05 03:19:44;;;;;;;10.40;5.50;;;;;;;14.43;100.00;101863.22;5176478;28;20017;-84
2023/09/05 03:22:15;;;;;;;8.77;5.50;;;;;;;14.36;100.00;101864.91;5168618;28;20053;-84
2023/09/05 03:24:45;;;;;;;11.18;5.32;;;;;;;14.31;100.00;101854.63;5175712;28;20029;-82
2023/09/05 03:27:16;;;;;;;13.93;5.55;;;;;;;14.28;100.00;101860.31;5185808;28;20022;-83
2023/09/05 03:29:47;;;;;;;11.05;6.07;;;;;;;14.29;100.00;101856.63;5191130;28;20010;-83
2023/09/05 03:32:17;;;;;;;11.85;6.38;;;;;;;14.28;100.00;101849.53;5179116;28;20041;-83
2023/09/05 03:34:48;;;;;;;8.82;4.90;;;;;;;14.29;100.00;101845.81;5196724;28;20387;-83
2023/09/05 03:37:19;;;;;;;15.32;6.03;;;;;;;14.27;100.00;101847.84;5186627;28;20030;-84
2023/09/05 03:39:49;;;;;;;11.73;6.15;;;;;;;14.25;100.00;101848.00;5188353;28;20030;-83
2023/09/05 03:42:20;;;;;;;8.75;4.82;;;;;;;14.21;100.00;101845.81;5182927;28;20081;-84
2023/09/05 03:44:50;;;;;;;10.50;5.40;;;;;;;14.17;100.00;101850.69;5180692;28;20030;-83
2023/09/05 03:47:21;;;;;;;9.52;6.28;;;;;;;14.16;100.00;101854.41;5189910;28;20025;-83
2023/09/05 03:49:51;;;;;;;16.70;5.88;;;;;;;14.16;100.00;101850.88;5183002;28;20443;-83
2023/09/05 03:52:22;;;;;;;16.15;6.50;;;;;;;14.12;100.00;101846.81;5186662;28;20053;-83
2023/09/05 03:54:52;;;;;;;18.77;6.55;;;;;;;14.12;100.00;101841.41;5188591;28;20021;-83
2023/09/05 03:57:23;;;;;;;9.23;5.82;;;;;;;14.11;100.00;101837.88;5176577;28;20022;-83
2023/09/05 03:59:53;;;;;;;13.80;6.13;;;;;;;14.12;100.00;101842.25;5178952;28;20093;-84
2023/09/05 04:02:24;;;;;;;16.85;6.22;;;;;;;14.14;100.00;101850.19;5175589;28;20181;-83
2023/09/05 04:04:55;;;;;;;8.80;4.70;;;;;;;14.11;100.00;101837.03;5183410;28;20076;-83
2023/09/05 04:07:25;;;;;;;9.77;5.57;;;;;;;14.10;100.00;101838.84;5184157;28;20022;-83
2023/09/05 04:09:56;;;;;;;8.35;5.07;;;;;;;14.05;100.00;101843.91;5178439;28;20017;-84
2023/09/05 04:12:26;;;;;;;12.52;5.22;;;;;;;14.02;100.00;101838.03;5186410;28;20022;-83
2023/09/05 04:14:57;;;;;;;11.45;6.47;;;;;;;13.97;100.00;101833.13;5183517;28;20034;-83
2023/09/05 04:17:27;;;;;;;9.68;6.57;;;;;;;13.94;100.00;101838.81;5185943;28;20105;-83
2023/09/05 04:19:58;;;;;;;13.73;6.70;;;;;;;13.91;100.00;101842.72;5176755;28;20545;-82
2023/09/05 04:22:28;;;;;;;11.88;6.25;;;;;;;13.91;100.00;101833.78;5186723;28;20100;-83
2023/09/05 04:24:59;;;;;;;13.85;6.03;;;;;;;13.92;100.00;101836.31;5178092;28;20477;-82
2023/09/05 04:27:29;;;;;;;16.70;7.55;;;;;;;13.93;100.00;101842.53;5174987;28;20034;-83
2023/09/05 04:30:00;;;;;;;16.10;8.13;;;;;;;13.93;100.00;101837.97;5185240;28;20036;-83
2023/09/05 04:32:31;;;;;;;14.07;6.68;;;;;;;13.90;100.00;101832.91;5178013;28;20415;-83
2023/09/05 04:35:04;;;;;;;11.00;5.97;;;;;;;13.90;100.00;101837.47;5176847;28;20022;-83
2023/09/05 04:37:36;;;;;;;13.98;6.82;;;;;;;13.87;100.00;101841.34;5174200;28;20445;-83
2023/09/05 04:40:07;;;;;;;14.38;6.72;;;;;;;13.84;100.00;101848.91;5175096;28;20065;-83
2023/09/05 04:42:39;;;;;;;10.13;6.53;;;;;;;13.79;100.00;101851.25;5183042;28;20019;-83
2023/09/05 04:45:09;;;;;;;23.38;6.95;;;;;;;13.74;100.00;101847.19;5175011;28;20029;-83
2023/09/05 04:47:40;;;;;;;13.82;7.10;;;;;;;13.73;100.00;101850.06;5165723;28;20086;-83
2023/09/05 04:50:10;;;;;;;14.68;6.72;;;;;;;13.69;100.00;101854.91;5183979;28;20568;-83
2023/09/05 04:52:41;;;;;;;15.35;6.78;;;;;;;13.67;100.00;101850.72;5187260;28;20017;-82
2023/09/05 04:55:11;;;;;;;13.80;7.43;;;;;;;13.65;100.00;101847.31;5181814;28;20404;-83
2023/09/05 04:57:42;;;;;;;13.13;7.53;;;;;;;13.63;100.00;101850.19;5178377;28;20025;-82
2023/09/05 05:00:13;;;;;;;14.23;7.63;;;;;;;13.62;100.00;101855.75;5191654;28;20018;-83
2023/09/05 05:02:44;;;;;;;13.93;6.28;;;;;;;13.61;100.00;101859.44;5180116;28;20017;-82
2023/09/05 05:05:14;;;;;;;13.95;7.13;;;;;;;13.59;100.00;101859.59;5197005;28;20030;-82
2023/09/05 05:07:45;;;;;;;13.30;6.70;;;;;;;13.57;100.00;101868.88;5184468;28;20030;-83
2023/09/05 05:10:16;;;;;;;13.65;7.78;;;;;;;13.55;100.00;101858.22;5183396;28;20439;-83
2023/09/05 05:12:47;;;;;;;8.90;5.30;;;;;;;13.53;100.00;101862.94;5162228;28;20045;-81
2023/09/05 05:15:17;;;;;;;12.35;5.22;;;;;;;13.50;100.00;101863.25;5181973;28;20022;-81
2023/09/05 05:17:48;;;;;;;12.75;6.55;;;;;;;13.52;100.00;101858.56;5179816;28;20061;-81
2023/09/05 05:20:18;;;;;;;11.25;6.78;;;;;;;13.54;100.00;101861.09;5183540;28;20393;-81
2023/09/05 05:22:49;;;;;;;9.40;6.18;;;;;;;13.54;100.00;101864.63;5170178;28;20057;-81
2023/09/05 05:25:19;;;;;;;21.33;7.22;;;;;;;13.57;100.00;101860.78;5183003;28;20022;-81
2023/09/05 05:27:50;;;;;;;10.05;6.60;;;;;;;13.58;100.00;101866.00;5182706;28;20480;-81
2023/09/05 05:30:20;;;;;;;14.30;6.80;;;;;;;13.63;100.00;101863.66;5184727;28;20132;-81
2023/09/05 05:32:51;;;;;;;15.00;7.80;;;;;;;13.69;100.00;101878.34;5196523;28;20365;-81
2023/09/05 05:35:21;;;;;;;12.90;7.85;;;;;;;13.69;100.00;101868.41;5179457;28;20026;-81
2023/09/05 05:37:52;;;;;;;13.20;7.75;;;;;;;13.74;100.00;101851.72;5177229;28;20034;-81
2023/09/05 05:40:23;;;;;;;11.65;6.85;;;;;;;13.78;100.00;101861.19;5152664;28;20022;-81
2023/09/05 05:42:54;;;;;;;16.08;7.97;;;;;;;13.86;100.00;101863.09;5162384;28;20021;-81
2023/09/05 05:45:24;;;;;;;12.75;7.03;;;;;;;13.90;100.00;101865.28;5177699;28;20465;-81
2023/09/05 05:47:56;;;;;;;18.80;7.97;;;;;;;13.97;100.00;101863.63;5173482;28;20026;-82
2023/09/05 05:50:27;;;;;;;17.30;8.07;;;;;;;14.08;100.00;101859.78;5183181;28;20153;-81
2023/09/05 05:52:57;;;;;;;15.70;9.05;;;;;;;14.15;100.00;101868.88;5177666;28;20050;-82
2023/09/05 05:55:28;;;;;;;16.70;8.30;;;;;;;14.29;100.00;101867.41;5174459;28;20453;-85
2023/09/05 05:58:00;;;;;;;15.73;8.98;;;;;;;14.66;100.00;101872.41;5180771;28;20014;-85
2023/09/05 06:00:31;;;;;;;17.05;7.25;;;;;;;15.41;100.00;101868.56;5174105;28;20436;-85
2023/09/05 06:03:01;;;;;;;17.15;7.65;;;;;;;16.08;100.00;101865.47;5180054;28;20013;-85
2023/09/05 06:05:32;;;;;;;13.88;6.68;;;;;;;16.75;100.00;101869.25;5175069;28;20029;-82
2023/09/05 06:08:03;;;;;;;12.43;6.45;;;;;;;17.45;100.00;101872.66;5192942;28;20030;-84
2023/09/05 06:10:34;;;;;;;9.15;5.50;;;;;;;18.05;100.00;101860.75;5194793;28;20423;-85
2023/09/05 06:13:05;;;;;;;10.05;5.20;;;;;;;18.77;100.00;101857.13;5178848;28;20018;-85
2023/09/05 06:15:35;;;;;;;7.35;4.70;;;;;;;19.37;100.00;101851.06;5182927;28;20050;-85
2023/09/05 06:18:08;;;;;;;7.68;4.20;;;;;;;19.95;100.00;101850.78;5183601;28;20052;-85
2023/09/05 06:20:39;;;;;;;6.85;4.40;;;;;;;20.42;100.00;101838.94;5170091;28;20023;-83
2023/09/05 06:23:09;;;;;;;9.07;4.50;;;;;;;20.69;100.00;101839.84;5171498;28;20026;-85
2023/09/05 06:25:40;;;;;;;8.15;4.20;;;;;;;21.04;100.00;101836.91;5176736;28;20010;-85
2023/09/05 06:28:10;;;;;;;9.00;4.28;;;;;;;21.35;100.00;101844.44;5175205;28;20014;-86
2023/09/05 06:30:41;;;;;;;5.85;4.20;;;;;;;21.61;100.00;101848.16;5172544;28;20026;-86
2023/09/05 06:33:12;;;;;;;8.00;3.90;;;;;;;21.81;100.00;101848.06;5173548;28;20396;-85
2023/09/05 06:35:44;;;;;;;5.10;3.58;;;;;;;22.05;100.00;101844.59;5165706;28;20030;-86
2023/09/05 06:38:15;;;;;;;10.82;4.07;;;;;;;22.22;100.00;101847.69;5175123;28;20386;-86
2023/09/05 06:40:45;;;;;;;5.95;3.78;;;;;;;22.42;100.00;101842.91;5178932;28;20044;-86
2023/09/05 06:43:17;;;;;;;6.38;3.88;;;;;;;22.61;100.00;101834.81;5158716;28;20034;-86
2023/09/05 06:45:47;;;;;;;5.68;3.53;;;;;;;22.86;100.00;101841.13;5148001;28;20041;-86
2023/09/05 06:48:18;;;;;;;8.80;3.97;;;;;;;23.07;100.00;101841.81;5179063;28;20026;-86
2023/09/05 06:50:48;;;;;;;8.60;3.70;;;;;;;23.24;100.00;101842.88;5186156;28;20064;-83
2023/09/05 06:53:19;;;;;;;5.28;3.75;;;;;;;23.51;100.00;101849.75;5179410;28;20444;-81
2023/09/05 06:55:51;;;;;;;6.25;3.50;;;;;;;23.78;100.00;101838.50;5176813;28;20142;-85
2023/09/05 06:58:24;;;;;;;5.40;3.53;;;;;;;23.80;100.00;101833.66;5175198;28;20033;-82
2023/09/05 07:00:55;;;;;;;5.85;3.58;;;;;;;23.77;100.00;101831.34;5178072;28;20024;-82
2023/09/05 07:03:26;;;;;;;8.43;3.72;;;;;;;24.00;100.00;101834.22;5173680;28;20049;-84
2023/09/05 07:05:57;;;;;;;6.28;3.90;;;;;;;24.23;100.00;101827.97;5179559;28;20105;-83
2023/09/05 07:08:28;;;;;;;8.52;3.67;;;;;;;24.52;100.00;101829.03;5175367;28;20033;-84
2023/09/05 07:10:59;;;;;;;8.80;3.90;;;;;;;24.53;100.00;101827.97;5188667;28;20026;-84
2023/09/05 07:13:29;;;;;;;6.18;3.50;;;;;;;24.56;100.00;101825.84;5174457;28;20030;-83
2023/09/05 07:16:00;;;;;;;10.60;4.05;;;;;;;24.78;100.00;101832.41;5184750;28;20105;-84
2023/09/05 07:18:32;;;;;;;7.80;3.85;;;;;;;25.05;100.00;101830.03;5185373;28;20109;-84
2023/09/05 07:21:02;;;;;;;8.23;3.58;;;;;;;25.17;100.00;101828.16;5179646;28;20025;-83
2023/09/05 07:23:33;;;;;;;6.38;3.63;;;;;;;25.19;100.00;101826.00;5174189;28;20620;-82
2023/09/05 07:26:04;;;;;;;7.30;3.17;;;;;;;25.43;100.00;101818.56;5174806;28;20117;-83
2023/09/05 07:28:35;;;;;;;6.45;3.33;;;;;;;25.71;100.00;101823.31;5174515;28;20030;-83
2023/09/05 07:31:05;;;;;;;4.10;3.28;;;;;;;25.82;100.00;101819.69;5174555;28;20032;-83
2023/09/05 07:33:37;;;;;;;7.03;3.42;;;;;;;25.92;100.00;101827.31;5174706;28;20400;-83
2023/09/05 07:36:08;;;;;;;4.97;3.30;;;;;;;26.03;100.00;101811.84;5175550;28;20018;-83
2023/09/05 07:38:38;;;;;;;6.85;3.33;;;;;;;26.02;100.00;101818.44;5191803;28;20060;-84
2023/09/05 07:41:09;;;;;;;10.50;3.63;;;;;;;26.03;100.00;101818.19;5176067;28;20014;-83
2023/09/05 07:43:40;;;;;;;4.93;3.03;;;;;;;26.16;100.00;101816.22;5176115;28;20079;-84
2023/09/05 07:46:11;;;;;;;4.50;3.63;;;;;;;26.41;100.00;101807.56;5176500;28;20536;-85
2023/09/05 07:48:41;;;;;;;6.85;3.42;;;;;;;26.66;100.00;101805.31;5174825;28;20024;-85
2023/09/05 07:51:12;;;;;;;6.88;3.30;;;;;;;26.68;100.00;101802.28;5176907;28;20022;-86
2023/09/05 07:53:49;;;;;;;9.45;3.63;;;;;;;26.82;100.00;101806.38;5177815;28;20092;-84
2023/09/05 07:56:20;;;;;;;6.88;3.25;;;;;;;26.89;100.00;101807.00;5176782;28;20168;-85
2023/09/05 07:58:50;;;;;;;5.05;3.42;;;;;;;26.97;100.00;101801.09;5176000;28;20093;-84
2023/09/05 08:01:21;;;;;;;6.40;3.55;;;;;;;27.11;100.00;101807.13;5175683;28;20059;-85
2023/09/05 08:03:52;;;;;;;6.28;3.05;;;;;;;27.31;100.00;101806.53;5175887;28;20022;-85
2023/09/05 08:06:22;;;;;;;7.93;3.50;;;;;;;27.58;100.00;101801.13;5175148;28;20050;-85
2023/09/05 08:08:53;;;;;;;6.10;2.95;;;;;;;27.73;100.00;101798.56;5176186;28;20061;-84
2023/09/05 08:11:23;;;;;;;7.55;3.38;;;;;;;27.75;100.00;101795.53;5173855;28;20156;-84
2023/09/05 08:13:54;;;;;;;4.65;2.60;;;;;;;27.77;100.00;101788.69;5174815;28;20493;-84
2023/09/05 08:16:25;;;;;;;6.85;2.90;;;;;;;27.97;100.00;101793.59;5165398;28;20029;-84
2023/09/05 08:18:55;;;;;;;9.27;2.88;;;;;;;28.07;100.00;101790.13;5175343;28;20025;-84
2023/09/05 08:21:26;;;;;;;5.88;2.70;;;;;;;28.22;100.00;101790.25;5174859;28;20029;-83
2023/09/05 08:23:57;;;;;;;3.25;2.60;;;;;;;28.42;100.00;101786.88;5174856;28;20416;-83
2023/09/05 08:26:27;;;;;;;5.07;2.85;;;;;;;28.81;100.00;101794.91;5174039;28;20022;-83
2023/09/05 08:28:58;;;;;;;6.75;3.33;;;;;;;28.87;100.00;101788.34;5174719;28;20049;-84
2023/09/05 08:31:29;;;;;;;4.93;2.50;;;;;;;28.88;100.00;101795.50;5173738;28;20079;-83
2023/09/05 08:33:59;;;;;;;3.97;2.72;;;;;;;28.99;100.00;101793.66;5175528;28;20025;-85
2023/09/05 08:36:31;;;;;;;5.80;2.80;;;;;;;29.10;100.00;101800.91;5173282;28;20108;-87
2023/09/05 08:39:03;;;;;;;4.90;2.35;;;;;;;29.32;100.00;101797.97;5176991;28;20030;-87
2023/09/05 08:41:34;;;;;;;7.38;2.55;;;;;;;29.44;100.00;101803.31;5174856;28;20527;-87
2023/09/05 08:44:05;;;;;;;4.43;2.50;;;;;;;29.62;100.00;101809.22;5173169;28;20022;-87
2023/09/05 08:46:39;;;;;;;3.47;2.40;;;;;;;29.87;100.00;101813.16;5174924;28;20113;-87
2023/09/05 08:49:09;;;;;;;4.07;2.78;;;;;;;30.05;100.00;101818.19;5173787;28;20028;-87
2023/09/05 08:51:40;;;;;;;5.72;2.63;;;;;;;29.85;100.00;101815.38;5174630;28;20026;-87
2023/09/05 08:54:15;;;;;;;6.15;2.60;;;;;;;29.98;100.00;101817.63;5186604;28;20026;-87
2023/09/05 08:56:46;;;;;;;3.25;2.05;;;;;;;30.30;100.00;101820.19;5173975;28;20024;-87
2023/09/05 08:59:17;;;;;;;4.85;2.50;;;;;;;30.41;100.00;101824.63;5175522;28;20433;-87
2023/09/05 09:01:47;;;;;;;6.07;2.75;;;;;;;30.34;100.00;101828.78;5173550;28;20023;-87
2023/09/05 09:04:20;;;;;;;4.30;2.47;;;;;;;30.31;100.00;101823.78;5173521;28;20072;-87
2023/09/05 09:06:55;;;;;;;4.38;2.63;;;;;;;30.53;100.00;101824.38;5176643;28;20052;-87
2023/09/05 09:09:35;;;;;;;7.60;2.78;;;;;;;30.57;100.00;101822.69;5176455;28;20045;-87
2023/09/05 09:12:06;;;;;;;5.28;2.83;;;;;;;30.82;100.00;101826.59;5176619;28;20840;-87
2023/09/05 09:14:36;;;;;;;4.97;2.40;;;;;;;31.00;100.00;101827.94;5157647;28;20412;-87
2023/09/05 09:17:09;;;;;;;5.72;2.70;;;;;;;31.17;100.00;101825.69;5175356;28;20018;-87
2023/09/05 09:19:39;;;;;;;4.38;2.40;;;;;;;31.16;100.00;101838.72;5173253;28;20113;-87
2023/09/05 09:22:10;;;;;;;5.00;2.30;;;;;;;31.22;100.00;101822.91;5171339;28;20105;-87
2023/09/05 09:24:40;;;;;;;4.80;2.00;;;;;;;31.31;100.00;101812.09;5193730;28;20121;-86
2023/09/05 09:27:11;;;;;;;5.88;2.55;;;;;;;31.34;100.00;101808.78;5174349;28;20034;-87
2023/09/05 09:29:42;;;;;;;3.03;2.28;;;;;;;31.41;100.00;101815.66;5174671;28;20068;-87
2023/09/05 09:32:13;;;;;;;3.65;2.30;;;;;;;31.53;100.00;101825.59;5159253;28;20054;-88
2023/09/05 09:34:43;;;;;;;4.18;2.70;;;;;;;31.39;100.00;101815.13;5171874;28;20032;-87
2023/09/05 09:37:25;;;;;;;4.40;2.13;;;;;;;31.55;100.00;101823.38;5177476;28;20064;-87
2023/09/05 09:39:58;;;;;;;7.90;2.40;;;;;;;31.53;100.00;101818.13;5173518;28;20038;-87
2023/09/05 09:42:29;;;;;;;6.28;2.28;;;;;;;31.41;100.00;101815.66;5163618;28;20033;-87
2023/09/05 09:45:00;;;;;;;3.97;2.40;;;;;;;30.99;100.00;101815.22;5176844;28;20025;-87
2023/09/05 09:47:33;;;;;;;6.32;2.38;;;;;;;31.04;100.00;101810.50;5171970;28;20030;-87
2023/09/05 09:50:04;;;;;;;3.88;2.35;;;;;;;31.19;100.00;101815.16;5177486;28;20443;-87
2023/09/05 09:52:41;;;;;;;4.10;2.22;;;;;;;31.14;100.00;101813.22;5176090;28;20022;-87
2023/09/05 09:55:14;;;;;;;3.42;2.63;;;;;;;31.06;100.00;101813.78;5156759;28;20033;-87
2023/09/05 09:58:01;;;;;;;5.93;2.47;;;;;;;31.08;100.00;101805.22;5172293;28;20070;-87
2023/09/05 10:00:32;;;;;;;4.00;2.30;;;;;;;30.83;100.00;101817.19;5171764;28;20028;-87
2023/09/05 10:03:08;;;;;;;6.82;2.33;;;;;;;30.73;100.00;101811.66;5168340;28;20029;-86
2023/09/05 10:05:41;;;;;;;3.15;2.20;;;;;;;30.83;100.00;101803.34;5173693;28;20026;-87
2023/09/05 10:08:12;;;;;;;4.35;2.20;;;;;;;30.88;100.00;101808.88;5172826;28;20014;-87
2023/09/05 10:10:43;;;;;;;3.05;1.83;;;;;;;30.80;100.00;101810.25;5173506;28;20033;-87
2023/09/05 10:13:14;;;;;;;4.22;2.10;;;;;;;30.54;100.00;101806.63;5169374;28;20030;-83
2023/09/05 10:15:48;;;;;;;4.95;2.33;;;;;;;30.34;100.00;101799.16;5157178;28;20025;-81
2023/09/05 10:18:20;;;;;;;6.65;2.85;;;;;;;30.33;100.00;101802.22;5172156;28;20040;-83
2023/09/05 10:20:52;;;;;;;6.85;2.33;;;;;;;30.20;100.00;101791.69;5173133;28;20032;-86
2023/09/05 10:23:23;;;;;;;4.15;1.90;;;;;;;30.07;100.00;101804.06;5171966;28;20029;-86
2023/09/05 10:25:55;;;;;;;3.95;1.70;;;;;;;30.03;100.00;101798.28;5168624;28;20026;-86
2023/09/05 10:28:27;;;;;;;3.00;1.70;;;;;;;30.03;100.00;101792.75;5170131;28;20029;-86
2023/09/05 10:31:12;;;;;;;2.92;1.90;;;;;;;29.86;100.00;101798.50;5171396;28;20030;-86
2023/09/05 10:33:45;;;;;;;4.20;1.70;;;;;;;30.04;100.00;101797.16;5172703;28;20481;-86
2023/09/05 10:36:41;;;;;;;4.22;1.98;;;;;;;30.02;100.00;101799.38;5172327;28;20416;-86
2023/09/05 10:39:25;;;;;;;5.57;2.28;;;;;;;30.27;100.00;101800.53;5170420;28;20071;-86
2023/09/05 10:41:55;;;;;;;3.85;2.00;;;;;;;30.44;100.00;101790.03;5169743;28;20034;-87
2023/09/05 10:44:26;;;;;;;3.95;1.88;;;;;;;30.39;100.00;101785.31;5173448;28;20567;-86
2023/09/05 10:47:26;;;;;;;3.88;2.97;;;;;;;30.54;100.00;101778.13;5175183;28;20025;-87
2023/09/05 10:49:59;;;;;;;4.80;2.35;;;;;;;30.44;100.00;101779.78;5172389;28;20034;-86
2023/09/05 10:52:30;;;;;;;3.55;1.83;;;;;;;30.50;100.00;101775.06;5173076;28;20489;-86
2023/09/05 10:55:32;;;;;;;2.70;1.70;;;;;;;30.65;100.00;101775.06;5184050;28;20101;-86
2023/09/05 10:58:03;;;;;;;3.60;1.95;;;;;;;30.83;100.00;101773.69;5173253;28;20119;-87
2023/09/05 11:00:39;;;;;;;3.53;1.80;;;;;;;30.86;100.00;101777.81;5177779;28;20029;-87
2023/09/05 11:03:13;;;;;;;2.55;1.70;;;;;;;30.90;100.00;101771.44;5174998;28;20017;-87
2023/09/05 11:05:45;;;;;;;5.37;2.00;;;;;;;31.06;100.00;101771.41;5172312;28;20072;-87
2023/09/05 11:08:21;;;;;;;5.60;1.83;;;;;;;31.06;100.00;101774.19;5178725;28;20026;-87
2023/09/05 11:10:55;;;;;;;4.28;2.05;;;;;;;30.87;100.00;101762.84;5175039;28;20392;-87
2023/09/05 11:13:25;;;;;;;3.10;1.80;;;;;;;30.71;100.00;101761.25;5185243;28;20022;-88
2023/09/05 11:15:58;;;;;;;12.13;2.63;;;;;;;30.77;100.00;101760.13;5170787;28;20602;-87
2023/09/05 11:18:29;;;;;;;4.72;1.88;;;;;;;30.64;100.00;101758.72;5169158;28;20026;-87
2023/09/05 11:21:00;;;;;;;3.03;2.03;;;;;;;30.55;100.00;101754.88;5180317;28;20040;-87
2023/09/05 11:23:32;;;;;;;7.50;2.28;;;;;;;30.67;100.00;101745.16;5180545;28;20030;-87
2023/09/05 11:26:06;;;;;;;2.63;1.90;;;;;;;30.74;100.00;101753.22;5163097;28;20095;-86
2023/09/05 11:28:37;;;;;;;3.72;2.00;;;;;;;30.88;100.00;101745.16;5186118;28;20026;-87
2023/09/05 11:31:11;;;;;;;4.32;1.90;;;;;;;31.04;100.00;101746.75;5186931;28;20384;-87
2023/09/05 11:33:41;;;;;;;3.03;1.90;;;;;;;31.17;100.00;101742.53;5188034;28;20105;-87
2023/09/05 11:36:12;;;;;;;5.88;2.42;;;;;;;31.23;100.00;101743.34;5175701;28;20109;-87